sensor_id;sensor_type;location;lat;lon;timestamp;pressure;altitude;pressure_sealevel;temperature;humidity
63954;BME280;50128;52.094;5.232;2023-01-28T00:02:40;102882.0;;;3.85;82.77
63954;BME280;50128;52.094;5.232;2023-01-28T00:04:17;102883.0;;;3.85;82.84
63954;BME280;50128;52.094;5.232;2023-01-28T00:06:00;102891.00000000001;;;3.91;82.24
63954;BME280;50128;52.094;5.232;2023-01-28T00:09:14;102892.0;;;3.82;82.58
63954;BME280;50128;52.094;5.232;2023-01-28T00:10:50;102894.0;;;3.82;82.15
63954;BME280;50128;52.094;5.232;2023-01-28T00:12:26;102895.0;;;3.93;81.19
63954;BME280;50128;52.094;5.232;2023-01-28T00:14:04;102902.0;;;4.0;81.24
63954;BME280;50128;52.094;5.232;2023-01-28T00:17:17;102901.0;;;3.92;81.99
63954;BME280;50128;52.094;5.232;2023-01-28T00:18:53;102897.0;;;4.0;81.67
63954;BME280;50128;52.094;5.232;2023-01-28T00:20:30;102899.0;;;3.84;82.18
63954;BME280;50128;52.094;5.232;2023-01-28T00:23:49;102896.0;;;3.78;83.02
63954;BME280;50128;52.094;5.232;2023-01-28T00:25:26;102900.0;;;3.88;82.4
63954;BME280;50128;52.094;5.232;2023-01-28T00:27:02;102900.0;;;3.92;81.96
63954;BME280;50128;52.094;5.232;2023-01-28T00:28:39;102896.0;;;3.85;82.68
63954;BME280;50128;52.094;5.232;2023-01-28T00:31:53;102897.0;;;3.89;81.7
63954;BME280;50128;52.094;5.232;2023-01-28T00:33:31;102895.0;;;3.85;81.69
63954;BME280;50128;52.094;5.232;2023-01-28T00:35:08;102894.0;;;3.86;81.81
63954;BME280;50128;52.094;5.232;2023-01-28T00:38:20;102894.0;;;3.82;81.69
63954;BME280;50128;52.094;5.232;2023-01-28T00:39:57;102898.0;;;3.86;81.41
63954;BME280;50128;52.094;5.232;2023-01-28T00:41:33;102895.0;;;3.83;80.61
63954;BME280;50128;52.094;5.232;2023-01-28T00:44:45;102895.0;;;3.73;80.8
63954;BME280;50128;52.094;5.232;2023-01-28T00:46:22;102895.0;;;3.73;80.81
63954;BME280;50128;52.094;5.232;2023-01-28T00:47:59;102895.0;;;3.87;79.86
63954;BME280;50128;52.094;5.232;2023-01-28T00:49:35;102895.0;;;3.68;79.53
63954;BME280;50128;52.094;5.232;2023-01-28T00:52:51;102899.0;;;3.67;79.58
63954;BME280;50128;52.094;5.232;2023-01-28T00:54:27;102904.0;;;3.74;79.72
63954;BME280;50128;52.094;5.232;2023-01-28T00:56:04;102899.0;;;3.6;80.62
63954;BME280;50128;52.094;5.232;2023-01-28T00:59:18;102895.0;;;3.72;79.52
63954;BME280;50128;52.094;5.232;2023-01-28T01:00:55;102897.0;;;3.68;79.83
63954;BME280;50128;52.094;5.232;2023-01-28T01:02:31;102897.0;;;3.55;79.63
63954;BME280;50128;52.094;5.232;2023-01-28T01:04:08;102894.0;;;3.57;79.77
63954;BME280;50128;52.094;5.232;2023-01-28T01:07:22;102890.00000000001;;;3.58;79.58
63954;BME280;50128;52.094;5.232;2023-01-28T01:09:00;102889.00000000001;;;3.57;79.94
63954;BME280;50128;52.094;5.232;2023-01-28T01:10:37;102884.99999999999;;;3.53;79.83
63954;BME280;50128;52.094;5.232;2023-01-28T01:13:51;102888.00000000001;;;3.52;80.06
63954;BME280;50128;52.094;5.232;2023-01-28T01:15:28;102882.0;;;3.53;80.16
63954;BME280;50128;52.094;5.232;2023-01-28T01:17:04;102882.0;;;3.52;79.97
63954;BME280;50128;52.094;5.232;2023-01-28T01:20:20;102890.00000000001;;;3.42;80.28
63954;BME280;50128;52.094;5.232;2023-01-28T01:21:57;102889.00000000001;;;3.44;80.37
63954;BME280;50128;52.094;5.232;2023-01-28T01:23:33;102889.00000000001;;;3.4;79.97
63954;BME280;50128;52.094;5.232;2023-01-28T01:25:10;102886.99999999999;;;3.45;79.66
63954;BME280;50128;52.094;5.232;2023-01-28T01:28:25;102890.00000000001;;;3.45;79.88
63954;BME280;50128;52.094;5.232;2023-01-28T01:30:01;102889.00000000001;;;3.58;79.42
63954;BME280;50128;52.094;5.232;2023-01-28T01:31:38;102889.00000000001;;;3.46;79.89
63954;BME280;50128;52.094;5.232;2023-01-28T01:34:51;102888.00000000001;;;3.45;79.36
63954;BME280;50128;52.094;5.232;2023-01-28T01:36:28;102892.0;;;3.37;79.86
63954;BME280;50128;52.094;5.232;2023-01-28T01:38:05;102890.00000000001;;;3.4;79.91
63954;BME280;50128;52.094;5.232;2023-01-28T01:39:42;102886.99999999999;;;3.39;79.98
63954;BME280;50128;52.094;5.232;2023-01-28T01:43:00;102891.00000000001;;;3.42;80.11
63954;BME280;50128;52.094;5.232;2023-01-28T01:44:55;102895.0;;;3.49;79.92
63954;BME280;50128;52.094;5.232;2023-01-28T01:46:38;102894.0;;;3.45;79.42
63954;BME280;50128;52.094;5.232;2023-01-28T01:48:20;102893.0;;;3.46;79.45
63954;BME280;50128;52.094;5.232;2023-01-28T01:51:42;102898.0;;;3.52;79.52
63954;BME280;50128;52.094;5.232;2023-01-28T01:53:23;102901.0;;;3.53;79.38
63954;BME280;50128;52.094;5.232;2023-01-28T01:55:04;102905.0;;;3.51;80.38
63954;BME280;50128;52.094;5.232;2023-01-28T01:56:47;102907.0;;;3.53;80.92
63954;BME280;50128;52.094;5.232;2023-01-28T02:00:10;102908.0;;;3.54;80.7
63954;BME280;50128;52.094;5.232;2023-01-28T02:01:46;102904.0;;;3.57;80.19
63954;BME280;50128;52.094;5.232;2023-01-28T02:03:27;102901.0;;;3.76;79.47
63954;BME280;50128;52.094;5.232;2023-01-28T02:05:07;102904.0;;;3.63;79.63
63954;BME280;50128;52.094;5.232;2023-01-28T02:08:22;102902.0;;;3.49;82.3
63954;BME280;50128;52.094;5.232;2023-01-28T02:09:58;102897.0;;;3.39;83.47
63954;BME280;50128;52.094;5.232;2023-01-28T02:11:35;102903.0;;;3.38;83.65
63954;BME280;50128;52.094;5.232;2023-01-28T02:13:12;102906.0;;;3.37;83.05
63954;BME280;50128;52.094;5.232;2023-01-28T02:21:30;102901.0;;;3.57;82.5
63954;BME280;50128;52.094;5.232;2023-01-28T02:22:26;102905.0;;;3.57;81.63
63954;BME280;50128;52.094;5.232;2023-01-28T02:24:39;102899.0;;;3.59;81.58
63954;BME280;50128;52.094;5.232;2023-01-28T02:27:24;102906.0;;;3.61;81.45
63954;BME280;50128;52.094;5.232;2023-01-28T02:29:08;102906.0;;;3.53;82.33
63954;BME280;50128;52.094;5.232;2023-01-28T02:30:53;102913.00000000001;;;3.44;83.19
63954;BME280;50128;52.094;5.232;2023-01-28T02:32:40;102917.0;;;3.59;82.49
63954;BME280;50128;52.094;5.232;2023-01-28T02:34:28;102917.0;;;3.61;82.09
63954;BME280;50128;52.094;5.232;2023-01-28T02:36:17;102919.0;;;3.59;82.21
63954;BME280;50128;52.094;5.232;2023-01-28T02:39:47;102921.0;;;3.66;82.39
63954;BME280;50128;52.094;5.232;2023-01-28T02:41:32;102923.0;;;3.69;82.04
63954;BME280;50128;52.094;5.232;2023-01-28T02:43:13;102923.0;;;3.63;82.16
63954;BME280;50128;52.094;5.232;2023-01-28T02:44:50;102918.0;;;3.62;82.12
63954;BME280;50128;52.094;5.232;2023-01-28T02:49:39;102918.0;;;3.63;82.52
63954;BME280;50128;52.094;5.232;2023-01-28T02:51:22;102923.0;;;3.58;82.75
63954;BME280;50128;52.094;5.232;2023-01-28T02:53:44;102921.0;;;3.63;82.33
63954;BME280;50128;52.094;5.232;2023-01-28T02:55:52;102921.0;;;3.65;82.01
63954;BME280;50128;52.094;5.232;2023-01-28T02:57:37;102921.0;;;3.62;82.14
63954;BME280;50128;52.094;5.232;2023-01-28T02:59:35;102921.0;;;3.59;82.61
63954;BME280;50128;52.094;5.232;2023-01-28T03:03:09;102914.00000000001;;;3.67;81.53
63954;BME280;50128;52.094;5.232;2023-01-28T03:04:57;102906.0;;;3.62;82.09
63954;BME280;50128;52.094;5.232;2023-01-28T03:06:40;102905.0;;;3.52;82.75
63954;BME280;50128;52.094;5.232;2023-01-28T03:09:26;102901.0;;;3.57;82.37
63954;BME280;50128;52.094;5.232;2023-01-28T03:36:54;102915.00000000001;;;3.63;80.73
63954;BME280;50128;52.094;5.232;2023-01-28T03:38:33;102917.0;;;3.66;80.77
63954;BME280;50128;52.094;5.232;2023-01-28T03:40:19;102915.00000000001;;;3.56;81.87
63954;BME280;50128;52.094;5.232;2023-01-28T03:41:58;102908.99999999999;;;3.34;81.27
63954;BME280;50128;52.094;5.232;2023-01-28T03:43:35;102906.0;;;3.42;80.24
63954;BME280;50128;52.094;5.232;2023-01-28T03:46:50;102905.0;;;3.44;78.97
63954;BME280;50128;52.094;5.232;2023-01-28T03:48:27;102911.99999999999;;;3.42;79.42
63954;BME280;50128;52.094;5.232;2023-01-28T03:50:07;102907.0;;;3.44;79.61
63954;BME280;50128;52.094;5.232;2023-01-28T03:51:45;102908.99999999999;;;3.4;79.91
63954;BME280;50128;52.094;5.232;2023-01-28T03:54:58;102911.99999999999;;;3.45;79.88
63954;BME280;50128;52.094;5.232;2023-01-28T03:56:36;102914.00000000001;;;3.46;79.19
63954;BME280;50128;52.094;5.232;2023-01-28T03:58:15;102915.00000000001;;;3.4;80.64
63954;BME280;50128;52.094;5.232;2023-01-28T03:59:52;102915.00000000001;;;3.37;79.08
63954;BME280;50128;52.094;5.232;2023-01-28T04:03:16;102918.0;;;3.25;80.19
63954;BME280;50128;52.094;5.232;2023-01-28T04:04:53;102916.00000000001;;;3.28;80.39
63954;BME280;50128;52.094;5.232;2023-01-28T04:06:30;102911.99999999999;;;3.28;81.06
63954;BME280;50128;52.094;5.232;2023-01-28T04:09:42;102917.0;;;3.38;80.08
63954;BME280;50128;52.094;5.232;2023-01-28T04:11:20;102917.0;;;3.44;79.89
63954;BME280;50128;52.094;5.232;2023-01-28T04:12:56;102918.0;;;3.35;80.31
63954;BME280;50128;52.094;5.232;2023-01-28T04:14:32;102919.0;;;3.49;79.58
63954;BME280;50128;52.094;5.232;2023-01-28T04:17:45;102931.0;;;3.35;79.86
63954;BME280;50128;52.094;5.232;2023-01-28T04:19:24;102931.0;;;3.4;79.83
63954;BME280;50128;52.094;5.232;2023-01-28T04:21:00;102934.99999999999;;;3.51;78.98
63954;BME280;50128;52.094;5.232;2023-01-28T04:24:12;102940.00000000001;;;3.41;79.2
63954;BME280;50128;52.094;5.232;2023-01-28T04:25:49;102939.00000000001;;;3.53;78.13
63954;BME280;50128;52.094;5.232;2023-01-28T04:27:26;102936.99999999999;;;3.38;79.27
63954;BME280;50128;52.094;5.232;2023-01-28T04:30:38;102938.00000000001;;;3.47;79.19
63954;BME280;50128;52.094;5.232;2023-01-28T04:32:14;102948.0;;;3.34;79.16
63954;BME280;50128;52.094;5.232;2023-01-28T04:33:51;102952.0;;;3.44;79.44
63954;BME280;50128;52.094;5.232;2023-01-28T04:35:27;102953.0;;;3.39;79.37
63954;BME280;50128;52.094;5.232;2023-01-28T04:38:39;102957.0;;;3.37;79.17
63954;BME280;50128;52.094;5.232;2023-01-28T04:40:16;102957.0;;;3.28;79.69
63954;BME280;50128;52.094;5.232;2023-01-28T04:41:52;102957.0;;;3.41;79.06
63954;BME280;50128;52.094;5.232;2023-01-28T04:45:06;102957.0;;;3.41;78.61
63954;BME280;50128;52.094;5.232;2023-01-28T04:46:43;102954.0;;;3.16;79.3
63954;BME280;50128;52.094;5.232;2023-01-28T04:48:19;102956.0;;;3.32;79.55
63954;BME280;50128;52.094;5.232;2023-01-28T04:51:31;102944.0;;;3.23;79.84
63954;BME280;50128;52.094;5.232;2023-01-28T04:53:08;102938.00000000001;;;3.14;80.55
63954;BME280;50128;52.094;5.232;2023-01-28T04:54:44;102940.00000000001;;;3.19;80.63
63954;BME280;50128;52.094;5.232;2023-01-28T04:56:22;102942.0;;;3.24;78.58
63954;BME280;50128;52.094;5.232;2023-01-28T04:59:34;102938.00000000001;;;3.34;77.91
63954;BME280;50128;52.094;5.232;2023-01-28T05:01:10;102938.00000000001;;;3.33;78.23
63954;BME280;50128;52.094;5.232;2023-01-28T05:02:46;102933.0;;;3.26;78.48
63954;BME280;50128;52.094;5.232;2023-01-28T05:05:58;102934.99999999999;;;3.27;78.33
63954;BME280;50128;52.094;5.232;2023-01-28T05:07:35;102934.99999999999;;;3.31;78.7
63954;BME280;50128;52.094;5.232;2023-01-28T05:09:12;102938.00000000001;;;3.32;78.53
63954;BME280;50128;52.094;5.232;2023-01-28T05:12:24;102938.00000000001;;;3.36;77.66
63954;BME280;50128;52.094;5.232;2023-01-28T05:14:01;102932.0;;;3.15;77.17
63954;BME280;50128;52.094;5.232;2023-01-28T05:15:37;102936.99999999999;;;3.23;76.8
63954;BME280;50128;52.094;5.232;2023-01-28T05:18:50;102931.0;;;3.25;76.41
63954;BME280;50128;52.094;5.232;2023-01-28T05:20:26;102932.0;;;3.17;75.94
63954;BME280;50128;52.094;5.232;2023-01-28T05:22:02;102934.99999999999;;;3.19;76.47
63954;BME280;50128;52.094;5.232;2023-01-28T05:23:38;102931.0;;;3.17;75.56
63954;BME280;50128;52.094;5.232;2023-01-28T05:26:50;102933.0;;;3.07;75.27
63954;BME280;50128;52.094;5.232;2023-01-28T05:28:27;102936.99999999999;;;3.15;75.52
63954;BME280;50128;52.094;5.232;2023-01-28T05:30:06;102936.99999999999;;;3.14;76.09
63954;BME280;50128;52.094;5.232;2023-01-28T05:33:19;102934.99999999999;;;3.09;75.58
63954;BME280;50128;52.094;5.232;2023-01-28T05:34:55;102941.00000000001;;;3.1;75.69
63954;BME280;50128;52.094;5.232;2023-01-28T05:36:31;102938.00000000001;;;3.04;76.14
63954;BME280;50128;52.094;5.232;2023-01-28T05:39:43;102941.00000000001;;;2.99;77.49
63954;BME280;50128;52.094;5.232;2023-01-28T05:41:20;102941.00000000001;;;3.07;76.77
63954;BME280;50128;52.094;5.232;2023-01-28T05:44:32;102934.99999999999;;;3.05;76.41
63954;BME280;50128;52.094;5.232;2023-01-28T05:47:44;102933.99999999999;;;2.92;78.47
63954;BME280;50128;52.094;5.232;2023-01-28T05:49:21;102938.00000000001;;;2.95;76.69
63954;BME280;50128;52.094;5.232;2023-01-28T05:50:58;102936.99999999999;;;3.06;77.09
63954;BME280;50128;52.094;5.232;2023-01-28T05:54:11;102932.0;;;3.08;76.49
63954;BME280;50128;52.094;5.232;2023-01-28T05:55:48;102941.00000000001;;;3.06;76.49
63954;BME280;50128;52.094;5.232;2023-01-28T05:57:24;102938.00000000001;;;3.03;75.77
63954;BME280;50128;52.094;5.232;2023-01-28T06:00:37;102939.00000000001;;;3.02;76.39
63954;BME280;50128;52.094;5.232;2023-01-28T06:02:13;102933.0;;;3.22;75.94
63954;BME280;50128;52.094;5.232;2023-01-28T06:03:50;102933.99999999999;;;3.15;75.78
63954;BME280;50128;52.094;5.232;2023-01-28T06:05:26;102938.00000000001;;;3.09;75.33
63954;BME280;50128;52.094;5.232;2023-01-28T06:08:40;102942.0;;;3.02;75.61
63954;BME280;50128;52.094;5.232;2023-01-28T06:10:17;102944.0;;;2.99;75.91
63954;BME280;50128;52.094;5.232;2023-01-28T06:11:53;102940.00000000001;;;3.04;76.59
63954;BME280;50128;52.094;5.232;2023-01-28T06:15:06;102933.99999999999;;;2.93;78.2
63954;BME280;50128;52.094;5.232;2023-01-28T06:16:43;102938.00000000001;;;2.98;77.94
63954;BME280;50128;52.094;5.232;2023-01-28T06:18:18;102945.0;;;3.07;77.28
63954;BME280;50128;52.094;5.232;2023-01-28T06:21:31;102943.0;;;3.06;76.83
63954;BME280;50128;52.094;5.232;2023-01-28T06:23:08;102942.0;;;3.23;75.94
63954;BME280;50128;52.094;5.232;2023-01-28T06:24:45;102941.00000000001;;;3.09;76.66
63954;BME280;50128;52.094;5.232;2023-01-28T06:26:21;102944.0;;;3.08;76.69
63954;BME280;50128;52.094;5.232;2023-01-28T06:29:34;102940.00000000001;;;3.08;75.97
63954;BME280;50128;52.094;5.232;2023-01-28T06:31:11;102939.00000000001;;;3.12;76.12
63954;BME280;50128;52.094;5.232;2023-01-28T06:32:52;102938.00000000001;;;3.04;77.38
63954;BME280;50128;52.094;5.232;2023-01-28T06:36:06;102942.0;;;3.15;76.36
63954;BME280;50128;52.094;5.232;2023-01-28T06:37:44;102942.0;;;2.98;78.0
63954;BME280;50128;52.094;5.232;2023-01-28T06:39:20;102946.0;;;2.94;77.8
63954;BME280;50128;52.094;5.232;2023-01-28T06:40:57;102951.0;;;3.01;77.06
63954;BME280;50128;52.094;5.232;2023-01-28T06:44:10;102958.0;;;3.03;76.86
63954;BME280;50128;52.094;5.232;2023-01-28T06:45:47;102958.0;;;3.18;76.05
63954;BME280;50128;52.094;5.232;2023-01-28T06:47:23;102958.0;;;3.2;76.16
63954;BME280;50128;52.094;5.232;2023-01-28T06:50:35;102956.0;;;3.02;77.13
63954;BME280;50128;52.094;5.232;2023-01-28T06:52:11;102951.0;;;3.03;76.8
63954;BME280;50128;52.094;5.232;2023-01-28T06:53:47;102956.0;;;2.93;76.12
63954;BME280;50128;52.094;5.232;2023-01-28T06:57:00;102958.99999999999;;;2.91;76.12
63954;BME280;50128;52.094;5.232;2023-01-28T06:58:36;102961.99999999999;;;2.96;76.37
63954;BME280;50128;52.094;5.232;2023-01-28T07:00:15;102964.00000000001;;;2.92;76.3
63954;BME280;50128;52.094;5.232;2023-01-28T07:01:51;102969.0;;;2.98;76.59
63954;BME280;50128;52.094;5.232;2023-01-28T07:05:04;102967.0;;;2.91;77.3
63954;BME280;50128;52.094;5.232;2023-01-28T07:06:40;102964.00000000001;;;3.0;77.11
63954;BME280;50128;52.094;5.232;2023-01-28T07:08:17;102968.0;;;3.0;77.16
63954;BME280;50128;52.094;5.232;2023-01-28T07:11:29;102965.00000000001;;;2.89;77.66
63954;BME280;50128;52.094;5.232;2023-01-28T07:13:05;102961.99999999999;;;2.83;77.66
63954;BME280;50128;52.094;5.232;2023-01-28T07:14:41;102961.99999999999;;;2.96;76.97
63954;BME280;50128;52.094;5.232;2023-01-28T07:17:53;102958.0;;;2.84;77.84
63954;BME280;50128;52.094;5.232;2023-01-28T07:19:30;102963.00000000001;;;2.93;78.17
63954;BME280;50128;52.094;5.232;2023-01-28T07:21:07;102963.00000000001;;;2.91;77.63
63954;BME280;50128;52.094;5.232;2023-01-28T07:24:20;102971.0;;;3.0;77.14
63954;BME280;50128;52.094;5.232;2023-01-28T07:26:00;102978.0;;;3.01;77.2
63954;BME280;50128;52.094;5.232;2023-01-28T07:27:36;102977.0;;;2.89;77.02
63954;BME280;50128;52.094;5.232;2023-01-28T07:29:12;102977.0;;;2.81;78.12
63954;BME280;50128;52.094;5.232;2023-01-28T07:32:26;102973.0;;;2.84;78.33
63954;BME280;50128;52.094;5.232;2023-01-28T07:34:02;102979.0;;;2.86;77.91
63954;BME280;50128;52.094;5.232;2023-01-28T07:35:38;102983.99999999999;;;2.77;78.55
63954;BME280;50128;52.094;5.232;2023-01-28T07:38:51;102983.0;;;2.86;77.83
63954;BME280;50128;52.094;5.232;2023-01-28T07:40:27;102986.99999999999;;;2.98;77.73
63954;BME280;50128;52.094;5.232;2023-01-28T07:42:04;102983.0;;;3.0;77.63
63954;BME280;50128;52.094;5.232;2023-01-28T07:45:17;102983.0;;;3.06;76.97
63954;BME280;50128;52.094;5.232;2023-01-28T07:46:53;102992.0;;;2.96;77.36
63954;BME280;50128;52.094;5.232;2023-01-28T07:48:30;102992.0;;;2.92;78.0
63954;BME280;50128;52.094;5.232;2023-01-28T07:50:08;102992.0;;;2.89;78.23
63954;BME280;50128;52.094;5.232;2023-01-28T07:53:22;102998.0;;;2.89;78.61
63954;BME280;50128;52.094;5.232;2023-01-28T07:54:58;103008.99999999999;;;2.81;79.19
63954;BME280;50128;52.094;5.232;2023-01-28T07:56:34;103008.99999999999;;;2.95;78.19
63954;BME280;50128;52.094;5.232;2023-01-28T07:59:48;103000.0;;;3.08;77.61
63954;BME280;50128;52.094;5.232;2023-01-28T08:01:24;102998.0;;;2.99;78.66
63954;BME280;50128;52.094;5.232;2023-01-28T08:03:03;103000.0;;;2.94;78.8
63954;BME280;50128;52.094;5.232;2023-01-28T08:04:41;103008.0;;;2.88;79.41
63954;BME280;50128;52.094;5.232;2023-01-28T08:07:53;103013.00000000001;;;2.87;79.58
63954;BME280;50128;52.094;5.232;2023-01-28T08:09:29;103013.00000000001;;;2.86;78.64
63954;BME280;50128;52.094;5.232;2023-01-28T08:11:07;103003.0;;;3.01;77.86
63954;BME280;50128;52.094;5.232;2023-01-28T08:14:26;103007.0;;;3.14;77.48
63954;BME280;50128;52.094;5.232;2023-01-28T08:16:04;103011.99999999999;;;3.07;76.91
63954;BME280;50128;52.094;5.232;2023-01-28T08:17:41;103013.00000000001;;;2.97;76.95
63954;BME280;50128;52.094;5.232;2023-01-28T08:19:17;103005.0;;;3.0;76.89
63954;BME280;50128;52.094;5.232;2023-01-28T08:22:31;103008.99999999999;;;2.91;79.05
63954;BME280;50128;52.094;5.232;2023-01-28T08:24:07;103013.00000000001;;;2.79;79.27
63954;BME280;50128;52.094;5.232;2023-01-28T08:25:44;103017.0;;;2.81;79.8
63954;BME280;50128;52.094;5.232;2023-01-28T08:28:56;103020.0;;;2.74;80.16
63954;BME280;50128;52.094;5.232;2023-01-28T08:30:33;103021.0;;;2.73;78.7
63954;BME280;50128;52.094;5.232;2023-01-28T08:32:10;103026.0;;;2.8;77.55
63954;BME280;50128;52.094;5.232;2023-01-28T08:35:22;103027.0;;;2.86;78.19
63954;BME280;50128;52.094;5.232;2023-01-28T08:36:58;103024.0;;;2.83;78.61
63954;BME280;50128;52.094;5.232;2023-01-28T08:38:34;103021.0;;;2.75;78.44
63954;BME280;50128;52.094;5.232;2023-01-28T08:40:11;103026.0;;;2.69;78.13
63954;BME280;50128;52.094;5.232;2023-01-28T08:43:24;103030.0;;;2.8;77.86
63954;BME280;50128;52.094;5.232;2023-01-28T08:45:01;103033.0;;;2.98;76.8
63954;BME280;50128;52.094;5.232;2023-01-28T08:46:37;103040.00000000001;;;2.86;78.25
63954;BME280;50128;52.094;5.232;2023-01-28T08:49:52;103041.00000000001;;;2.86;79.16
63954;BME280;50128;52.094;5.232;2023-01-28T08:51:28;103044.0;;;2.86;77.86
63954;BME280;50128;52.094;5.232;2023-01-28T08:53:09;103047.0;;;2.88;79.11
63954;BME280;50128;52.094;5.232;2023-01-28T08:56:22;103051.0;;;2.91;80.8
63954;BME280;50128;52.094;5.232;2023-01-28T08:58:00;103054.0;;;2.97;79.99
63954;BME280;50128;52.094;5.232;2023-01-28T08:59:44;103053.0;;;3.06;78.58
63954;BME280;50128;52.094;5.232;2023-01-28T09:01:20;103049.0;;;3.03;77.36
63954;BME280;50128;52.094;5.232;2023-01-28T09:04:32;103047.0;;;2.92;79.41
63954;BME280;50128;52.094;5.232;2023-01-28T09:06:08;103055.0;;;3.0;78.22
63954;BME280;50128;52.094;5.232;2023-01-28T09:07:45;103057.0;;;3.03;78.39
63954;BME280;50128;52.094;5.232;2023-01-28T09:10:58;103052.0;;;3.18;78.74
63954;BME280;50128;52.094;5.232;2023-01-28T09:12:35;103044.0;;;3.13;79.17
63954;BME280;50128;52.094;5.232;2023-01-28T09:14:13;103047.0;;;3.0;78.75
63954;BME280;50128;52.094;5.232;2023-01-28T09:15:50;103048.0;;;3.03;79.12
63954;BME280;50128;52.094;5.232;2023-01-28T09:19:02;103045.0;;;3.05;77.84
63954;BME280;50128;52.094;5.232;2023-01-28T09:20:38;103055.0;;;2.99;78.08
63954;BME280;50128;52.094;5.232;2023-01-28T09:22:16;103058.0;;;2.91;78.3
63954;BME280;50128;52.094;5.232;2023-01-28T09:27:08;103067.0;;;2.91;77.55
63954;BME280;50128;52.094;5.232;2023-01-28T09:28:46;103066.00000000001;;;2.88;79.06
63954;BME280;50128;52.094;5.232;2023-01-28T09:30:23;103066.00000000001;;;2.96;77.11
63954;BME280;50128;52.094;5.232;2023-01-28T09:33:39;103071.0;;;3.07;76.77
63954;BME280;50128;52.094;5.232;2023-01-28T09:35:17;103073.0;;;3.05;77.17
63954;BME280;50128;52.094;5.232;2023-01-28T09:36:53;103070.0;;;3.21;75.72
63954;BME280;50128;52.094;5.232;2023-01-28T09:40:10;103073.0;;;3.16;76.36
63954;BME280;50128;52.094;5.232;2023-01-28T09:42:00;103081.0;;;3.15;76.59
63954;BME280;50128;52.094;5.232;2023-01-28T09:44:02;103080.0;;;3.18;76.66
63954;BME280;50128;52.094;5.232;2023-01-28T09:45:43;103081.0;;;3.31;76.55
63954;BME280;50128;52.094;5.232;2023-01-28T09:47:25;103079.0;;;3.25;75.7
63954;BME280;50128;52.094;5.232;2023-01-28T09:50:53;103069.0;;;3.34;75.75
63954;BME280;50128;52.094;5.232;2023-01-28T09:52:33;103067.0;;;3.44;74.55
63954;BME280;50128;52.094;5.232;2023-01-28T09:54:20;103073.0;;;3.53;74.33
63954;BME280;50128;52.094;5.232;2023-01-28T09:56:04;103078.0;;;3.61;75.22
63954;BME280;50128;52.094;5.232;2023-01-28T09:57:45;103075.0;;;3.65;74.12
63954;BME280;50128;52.094;5.232;2023-01-28T10:01:05;103074.0;;;3.71;74.05
63954;BME280;50128;52.094;5.232;2023-01-28T10:03:18;103078.0;;;3.84;74.08
63954;BME280;50128;52.094;5.232;2023-01-28T10:05:16;103082.0;;;3.78;74.7
63954;BME280;50128;52.094;5.232;2023-01-28T10:07:02;103083.99999999999;;;3.79;74.89
63954;BME280;50128;52.094;5.232;2023-01-28T10:09:11;103093.0;;;3.72;73.55
63954;BME280;50128;52.094;5.232;2023-01-28T10:11:14;103090.00000000001;;;3.68;73.97
63954;BME280;50128;52.094;5.232;2023-01-28T10:13:06;103092.0;;;3.82;72.63
63954;BME280;50128;52.094;5.232;2023-01-28T10:14:55;103091.00000000001;;;3.84;71.89
63954;BME280;50128;52.094;5.232;2023-01-28T10:16:43;103092.0;;;3.85;71.97
63954;BME280;50128;52.094;5.232;2023-01-28T10:20:16;103090.00000000001;;;3.84;72.66
63954;BME280;50128;52.094;5.232;2023-01-28T10:22:00;103083.99999999999;;;3.87;72.17
63954;BME280;50128;52.094;5.232;2023-01-28T10:23:45;103083.99999999999;;;3.85;71.31
63954;BME280;50128;52.094;5.232;2023-01-28T10:25:31;103078.0;;;3.83;71.3
63954;BME280;50128;52.094;5.232;2023-01-28T10:27:13;103075.0;;;3.79;71.78
63954;BME280;50128;52.094;5.232;2023-01-28T10:30:34;103073.0;;;3.96;71.55
63954;BME280;50128;52.094;5.232;2023-01-28T10:32:26;103067.0;;;4.03;71.05
63954;BME280;50128;52.094;5.232;2023-01-28T10:34:04;103061.99999999999;;;4.13;69.81
63954;BME280;50128;52.094;5.232;2023-01-28T10:35:41;103067.0;;;4.13;69.36
63954;BME280;50128;52.094;5.232;2023-01-28T10:38:55;103067.0;;;4.16;69.86
63954;BME280;50128;52.094;5.232;2023-01-28T10:40:31;103068.0;;;4.24;69.52
63954;BME280;50128;52.094;5.232;2023-01-28T10:42:21;103067.0;;;4.32;69.33
63954;BME280;50128;52.094;5.232;2023-01-28T10:44:02;103067.0;;;4.34;69.11
63954;BME280;50128;52.094;5.232;2023-01-28T10:47:32;103067.0;;;4.36;68.84
63954;BME280;50128;52.094;5.232;2023-01-28T10:49:15;103067.0;;;4.39;68.55
63954;BME280;50128;52.094;5.232;2023-01-28T10:50:55;103064.00000000001;;;4.5;68.55
63954;BME280;50128;52.094;5.232;2023-01-28T10:52:32;103057.0;;;4.54;68.12
63954;BME280;50128;52.094;5.232;2023-01-28T10:54:25;103049.0;;;4.57;68.47
63954;BME280;50128;52.094;5.232;2023-01-28T10:57:43;103044.0;;;4.62;67.91
63954;BME280;50128;52.094;5.232;2023-01-28T10:59:24;103041.00000000001;;;4.66;67.75
63954;BME280;50128;52.094;5.232;2023-01-28T11:01:04;103042.0;;;4.7;68.02
63954;BME280;50128;52.094;5.232;2023-01-28T11:02:42;103034.99999999999;;;4.75;67.94
63954;BME280;50128;52.094;5.232;2023-01-28T11:06:00;103027.0;;;4.75;67.08
63954;BME280;50128;52.094;5.232;2023-01-28T11:07:37;103022.0;;;4.84;66.66
63954;BME280;50128;52.094;5.232;2023-01-28T11:09:23;103011.99999999999;;;4.84;66.58
63954;BME280;50128;52.094;5.232;2023-01-28T11:10:59;103004.0;;;4.99;66.66
63954;BME280;50128;52.094;5.232;2023-01-28T11:14:19;103000.0;;;4.95;66.39
63954;BME280;50128;52.094;5.232;2023-01-28T11:16:01;102998.0;;;4.91;66.02
63954;BME280;50128;52.094;5.232;2023-01-28T11:17:47;103001.0;;;4.87;66.7
63954;BME280;50128;52.094;5.232;2023-01-28T11:19:32;102993.0;;;4.99;66.59
63954;BME280;50128;52.094;5.232;2023-01-28T11:22:55;102981.0;;;5.16;66.92